Time;durP1;ratioP1;P1;durP2;ratioP2;P2;SDS_P1;SDS_P2;PMS_P1;PMS_P2;Temp;Humidity;BMP_temperature;BMP_pressure;BME280_temperature;BME280_humidity;BME280_pressure;Samples;Min_cycle;Max_cycle;Signal;HPM_P1;HPM_P2
2023/10/28 00:00:43;;;;;;;4.40;1.88;;;;;;;18.64;91.58;64934.81;5071567;28;20216;-56
2023/10/28 00:03:10;;;;;;;6.63;3.22;;;;;;;18.54;93.76;64923.78;5071494;28;20236;-55
2023/10/28 00:05:35;;;;;;;6.30;1.73;;;;;;;18.72;92.01;64943.63;5071642;28;20235;-55
2023/10/28 00:08:03;;;;;;;6.03;2.00;;;;;;;18.75;91.66;64949.50;5071395;28;20261;-54
2023/10/28 00:10:30;;;;;;;10.50;2.70;;;;;;;18.32;95.36;64900.03;5071364;28;20701;-56
2023/10/28 00:12:55;;;;;;;7.80;2.35;;;;;;;18.39;94.90;64910.31;5071369;28;20262;-54
2023/10/28 00:15:21;;;;;;;8.02;2.33;;;;;;;18.17;95.84;64886.03;5071412;28;20599;-54
2023/10/28 00:17:47;;;;;;;4.63;1.90;;;;;;;18.15;96.05;64881.28;5071201;28;20291;-55
2023/10/28 00:20:19;;;;;;;4.93;2.17;;;;;;;17.91;97.69;64852.28;5071307;28;20760;-56
2023/10/28 00:22:55;;;;;;;6.78;2.67;;;;;;;17.94;97.83;64858.13;5071257;28;20217;-55
2023/10/28 00:25:29;;;;;;;7.53;2.38;;;;;;;17.93;98.59;64853.94;5071439;28;20204;-54
2023/10/28 00:27:55;;;;;;;8.00;2.17;;;;;;;17.80;99.63;64840.16;5053292;28;20201;-54
2023/10/28 00:30:24;;;;;;;6.72;2.53;;;;;;;17.65;99.92;64826.16;5052466;28;20205;-52
2023/10/28 00:32:54;;;;;;;5.53;2.30;;;;;;;17.74;100.00;64835.53;5070553;28;20331;-53
2023/10/28 00:35:22;;;;;;;6.78;2.90;;;;;;;17.52;100.00;64809.28;5070570;28;20697;-54
2023/10/28 00:37:48;;;;;;;4.32;2.60;;;;;;;17.48;100.00;64807.97;5070681;28;20208;-54
2023/10/28 00:40:13;;;;;;;6.30;2.45;;;;;;;17.46;100.00;64805.19;5070978;28;20216;-53
2023/10/28 00:42:39;;;;;;;7.07;3.08;;;;;;;17.51;100.00;64813.28;5070949;28;20720;-52
2023/10/28 00:45:11;;;;;;;4.68;2.15;;;;;;;17.59;100.00;64817.00;5053236;28;20223;-53
2023/10/28 00:47:38;;;;;;;5.75;2.88;;;;;;;17.56;100.00;64816.25;5071638;28;20200;-52
2023/10/28 00:50:12;;;;;;;5.45;2.50;;;;;;;17.53;100.00;64812.94;5070951;28;20280;-52
2023/10/28 00:52:43;;;;;;;3.28;2.10;;;;;;;17.45;100.00;64801.56;5052849;28;20209;-53
2023/10/28 00:55:10;;;;;;;6.97;2.40;;;;;;;17.41;100.00;64799.69;5071036;28;20200;-53
2023/10/28 00:57:41;;;;;;;7.55;2.95;;;;;;;17.48;100.00;64807.41;5070691;28;20216;-54
2023/10/28 01:00:08;;;;;;;10.98;2.55;;;;;;;17.20;100.00;64776.56;5052763;28;20216;-54
2023/10/28 01:02:39;;;;;;;7.20;2.38;;;;;;;17.26;100.00;64783.16;5070655;28;20209;-54
2023/10/28 01:05:05;;;;;;;6.35;2.70;;;;;;;17.43;100.00;64802.44;5071024;28;20209;-55
2023/10/28 01:07:32;;;;;;;3.65;2.35;;;;;;;17.47;100.00;64804.28;5070535;28;20227;-55
2023/10/28 01:09:58;;;;;;;10.65;2.95;;;;;;;17.51;100.00;64810.75;5070611;28;20283;-57
2023/10/28 01:12:26;;;;;;;7.72;2.60;;;;;;;17.46;100.00;64805.19;5071066;28;20279;-56
2023/10/28 01:14:52;;;;;;;3.70;2.60;;;;;;;17.42;100.00;64801.34;5052716;28;20212;-54
2023/10/28 01:17:21;;;;;;;9.07;2.83;;;;;;;17.45;100.00;64804.66;5070887;28;20239;-55
2023/10/28 01:19:46;;;;;;;11.60;2.30;;;;;;;17.50;100.00;64809.63;5052510;28;20201;-60
2023/10/28 01:22:12;;;;;;;4.43;2.25;;;;;;;17.78;100.00;64840.50;5052534;28;20223;-55
2023/10/28 01:24:38;;;;;;;8.60;2.65;;;;;;;17.82;100.00;64842.34;5070538;28;20216;-56
2023/10/28 01:27:03;;;;;;;4.25;2.20;;;;;;;17.85;99.82;64848.22;5070501;28;20690;-55
2023/10/28 01:29:29;;;;;;;4.68;2.22;;;;;;;17.72;100.00;64831.31;5069789;28;20624;-55
2023/10/28 01:31:55;;;;;;;4.47;1.85;;;;;;;17.59;100.00;64817.53;5070697;28;20644;-56
2023/10/28 01:34:22;;;;;;;4.93;2.15;;;;;;;17.57;100.00;64814.81;5070379;28;20200;-53
2023/10/28 01:36:48;;;;;;;4.72;1.90;;;;;;;17.76;100.00;64837.72;5070696;28;20694;-54
2023/10/28 01:39:15;;;;;;;7.00;2.15;;;;;;;17.55;100.00;64815.69;5070201;28;20209;-53
2023/10/28 01:41:41;;;;;;;3.45;1.98;;;;;;;17.62;100.00;64825.41;5070522;28;21250;-55
2023/10/28 01:44:07;;;;;;;8.07;2.60;;;;;;;17.56;100.00;64816.25;5052300;28;20200;-55
2023/10/28 01:46:32;;;;;;;4.50;2.22;;;;;;;17.60;100.00;64816.09;5073437;28;20205;-55
2023/10/28 01:48:57;;;;;;;5.13;2.38;;;;;;;17.47;100.00;64806.31;5055926;28;20742;-55
2023/10/28 01:51:23;;;;;;;5.00;2.05;;;;;;;17.42;100.00;64800.78;5073715;28;21533;-55
2023/10/28 01:53:49;;;;;;;5.60;2.70;;;;;;;17.44;100.00;64803.56;5073756;28;20197;-55
2023/10/28 01:56:15;;;;;;;4.20;2.03;;;;;;;17.43;100.00;64801.91;5073781;28;20216;-53
2023/10/28 01:58:41;;;;;;;6.38;2.08;;;;;;;17.43;100.00;64801.91;5073612;28;20694;-53
2023/10/28 02:01:06;;;;;;;6.20;2.30;;;;;;;17.12;100.00;64767.75;5073699;28;20219;-53
2023/10/28 02:03:32;;;;;;;8.10;2.13;;;;;;;17.17;100.00;64771.25;5073587;28;20635;-52
2023/10/28 02:05:57;;;;;;;5.35;2.45;;;;;;;17.11;100.00;64769.19;5073812;28;20205;-60
2023/10/28 02:08:23;;;;;;;3.70;2.10;;;;;;;17.27;100.00;64786.81;5073371;28;20700;-55
2023/10/28 02:10:49;;;;;;;4.80;2.25;;;;;;;17.35;100.00;64790.53;5055508;28;20226;-52
2023/10/28 02:13:14;;;;;;;3.28;2.67;;;;;;;17.18;100.00;64774.91;5073475;28;20226;-51
2023/10/28 02:15:42;;;;;;;6.35;2.40;;;;;;;17.05;100.00;64760.03;5073300;28;20236;-52
2023/10/28 02:18:09;;;;;;;5.15;2.50;;;;;;;17.26;100.00;64785.72;5073202;28;20231;-53
2023/10/28 02:20:36;;;;;;;6.43;2.40;;;;;;;17.33;100.00;64790.88;5072949;28;20213;-54
2023/10/28 02:23:01;;;;;;;5.78;2.28;;;;;;;17.24;100.00;64783.50;5073135;28;20200;-53
2023/10/28 02:25:27;;;;;;;7.38;2.55;;;;;;;16.73;100.00;64723.34;5073315;28;20203;-52
2023/10/28 02:27:52;;;;;;;7.45;2.65;;;;;;;16.66;100.00;64715.63;5073176;28;20286;-53
2023/10/28 02:30:18;;;;;;;5.20;1.98;;;;;;;16.97;100.00;64753.78;5072985;28;20643;-53
2023/10/28 02:32:43;;;;;;;7.50;2.53;;;;;;;16.94;100.00;64745.38;5073011;28;20212;-53
2023/10/28 02:35:09;;;;;;;3.70;1.88;;;;;;;16.82;100.00;64737.25;5073102;28;20659;-52
2023/10/28 02:37:34;;;;;;;3.63;2.40;;;;;;;16.87;100.00;64740.22;5072932;28;20280;-52
2023/10/28 02:40:00;;;;;;;2.45;1.95;;;;;;;16.86;100.00;64739.66;5072694;28;20219;-52
2023/10/28 02:42:25;;;;;;;7.00;2.40;;;;;;;16.95;100.00;64749.03;5073331;28;20208;-53
2023/10/28 02:44:51;;;;;;;9.48;3.85;;;;;;;16.76;100.00;64729.19;5073308;28;20224;-53
2023/10/28 02:47:16;;;;;;;7.88;2.60;;;;;;;16.59;100.00;64710.47;5073287;28;20205;-53
2023/10/28 02:49:42;;;;;;;5.95;2.78;;;;;;;16.54;100.00;64702.41;5073009;28;20292;-53
2023/10/28 02:52:07;;;;;;;6.68;3.03;;;;;;;16.51;100.00;64701.66;5072967;28;20566;-53
2023/10/28 02:54:36;;;;;;;5.00;2.60;;;;;;;16.54;100.00;64701.88;5072831;28;20192;-56
2023/10/28 02:57:02;;;;;;;9.82;3.03;;;;;;;16.43;100.00;64692.84;5071650;28;20291;-53
2023/10/28 02:59:27;;;;;;;9.80;3.65;;;;;;;16.56;100.00;64706.63;5072663;28;20334;-53
2023/10/28 03:01:54;;;;;;;8.35;2.78;;;;;;;16.56;100.00;64704.63;5072873;28;20227;-53
2023/10/28 03:04:19;;;;;;;6.85;2.80;;;;;;;16.64;100.00;64715.44;5054617;28;20696;-52
2023/10/28 03:06:52;;;;;;;9.52;3.38;;;;;;;16.49;100.00;64699.47;5072837;28;20220;-56
2023/10/28 03:09:17;;;;;;;4.38;2.67;;;;;;;16.62;100.00;64713.75;5072440;28;20208;-54
2023/10/28 03:11:43;;;;;;;8.60;2.60;;;;;;;16.61;100.00;64712.13;5072605;28;20651;-55
2023/10/28 03:14:08;;;;;;;8.52;2.58;;;;;;;16.18;100.00;64664.78;5054626;28;20211;-56
2023/10/28 03:16:33;;;;;;;7.55;2.78;;;;;;;16.27;100.00;64675.22;5072379;28;20205;-56
2023/10/28 03:18:59;;;;;;;8.35;2.30;;;;;;;16.41;100.00;64690.06;5054703;28;20219;-57
2023/10/28 03:21:25;;;;;;;7.13;2.97;;;;;;;16.32;100.00;64680.72;5072214;28;20566;-54
2023/10/28 03:23:50;;;;;;;6.47;2.60;;;;;;;16.28;100.00;64678.31;5072331;28;20200;-56
2023/10/28 03:26:16;;;;;;;3.67;2.78;;;;;;;16.27;100.00;64675.22;5054335;28;20287;-55
2023/10/28 03:28:41;;;;;;;5.03;2.53;;;;;;;16.32;100.00;64680.72;5072272;28;20567;-55
2023/10/28 03:31:11;;;;;;;4.65;2.53;;;;;;;16.43;100.00;64695.38;5072247;28;20242;-56
2023/10/28 03:33:38;;;;;;;5.65;2.33;;;;;;;16.41;100.00;64690.63;5054727;28;20213;-56
2023/10/28 03:36:10;;;;;;;4.53;2.85;;;;;;;16.35;100.00;64683.47;5072230;28;20193;-55
2023/10/28 03:38:36;;;;;;;6.15;2.53;;;;;;;16.29;100.00;64677.41;5072014;28;20187;-55
2023/10/28 03:41:06;;;;;;;6.25;2.50;;;;;;;16.31;100.00;64679.06;5072258;28;20698;-54
2023/10/28 03:43:31;;;;;;;5.63;2.33;;;;;;;16.41;100.00;64693.19;5072212;28;20254;-54
2023/10/28 03:45:57;;;;;;;7.60;2.47;;;;;;;16.36;100.00;64682.56;5071977;28;20209;-54
2023/10/28 03:48:23;;;;;;;8.63;3.03;;;;;;;16.33;100.00;64681.28;5070491;28;20217;-54
2023/10/28 03:51:05;;;;;;;6.65;3.03;;;;;;;16.22;100.00;64666.63;5070548;28;20205;-55
2023/10/28 03:53:31;;;;;;;7.38;2.70;;;;;;;16.22;100.00;64669.19;5072085;28;20200;-55
2023/10/28 03:55:57;;;;;;;5.40;2.25;;;;;;;16.17;100.00;64666.75;5072022;28;20211;-53
2023/10/28 03:58:23;;;;;;;4.95;2.33;;;;;;;16.12;100.00;64658.69;5071820;28;20197;-53
2023/10/28 04:00:53;;;;;;;7.57;2.67;;;;;;;16.10;100.00;64656.50;5053711;28;20278;-52
2023/10/28 04:03:22;;;;;;;4.88;2.20;;;;;;;16.14;100.00;64663.44;5071829;28;20205;-53
2023/10/28 04:05:49;;;;;;;5.22;2.60;;;;;;;16.28;100.00;64675.78;5071680;28;20613;-54
2023/10/28 04:08:15;;;;;;;5.60;2.40;;;;;;;16.21;100.00;64668.06;5053426;28;20290;-55
2023/10/28 04:10:41;;;;;;;7.22;2.20;;;;;;;16.29;100.00;64677.41;5071766;28;20615;-53
2023/10/28 04:13:07;;;;;;;5.22;3.13;;;;;;;16.26;100.00;64674.13;5071627;28;20208;-54
2023/10/28 04:15:33;;;;;;;6.25;2.97;;;;;;;16.22;100.00;64672.25;5071420;28;20192;-52
2023/10/28 04:17:58;;;;;;;5.30;2.75;;;;;;;16.28;100.00;64678.84;5071428;28;20590;-54
2023/10/28 04:20:24;;;;;;;6.15;2.42;;;;;;;16.36;100.00;64685.13;5071312;28;20265;-55
2023/10/28 04:22:49;;;;;;;3.60;2.58;;;;;;;16.27;100.00;64672.69;5071364;28;20208;-56
2023/10/28 04:25:15;;;;;;;4.30;2.70;;;;;;;16.11;100.00;64660.16;5071431;28;20310;-56
2023/10/28 04:27:41;;;;;;;5.07;2.42;;;;;;;16.22;100.00;64672.25;5071212;28;20223;-57
2023/10/28 04:30:10;;;;;;;5.70;2.88;;;;;;;16.28;100.00;64676.31;5071289;28;20196;-54
2023/10/28 04:32:38;;;;;;;8.45;3.40;;;;;;;16.34;100.00;64685.47;5071624;28;20213;-54
2023/10/28 04:35:04;;;;;;;6.32;2.95;;;;;;;16.14;100.00;64660.38;5071309;28;20254;-60
2023/10/28 04:37:29;;;;;;;7.25;3.00;;;;;;;16.23;100.00;64670.25;5071368;28;20221;-56
2023/10/28 04:39:54;;;;;;;8.10;2.80;;;;;;;16.21;100.00;64668.63;5071202;28;20193;-55
2023/10/28 04:42:20;;;;;;;6.13;3.10;;;;;;;16.21;100.00;64671.16;5071203;28;20640;-56
2023/10/28 04:45:06;;;;;;;5.47;2.78;;;;;;;16.25;100.00;64672.47;5071005;28;20230;-59
2023/10/28 04:47:31;;;;;;;5.20;2.70;;;;;;;16.38;100.00;64684.78;5071103;28;20269;-62
2023/10/28 04:49:57;;;;;;;8.77;4.00;;;;;;;16.28;100.00;64676.31;5070929;28;20625;-55
2023/10/28 04:52:24;;;;;;;10.00;3.50;;;;;;;16.13;100.00;64659.25;5070960;28;20239;-55
2023/10/28 04:54:49;;;;;;;9.55;3.75;;;;;;;16.15;100.00;64659.47;5070848;28;20201;-55
2023/10/28 04:57:15;;;;;;;8.05;3.35;;;;;;;16.22;100.00;64669.19;5053034;28;20586;-55
2023/10/28 04:59:41;;;;;;;8.15;3.13;;;;;;;16.16;100.00;64663.09;5071026;28;20185;-52
2023/10/28 05:02:06;;;;;;;6.80;3.25;;;;;;;16.11;100.00;64659.59;5071093;28;20262;-52
2023/10/28 05:04:32;;;;;;;6.40;2.83;;;;;;;16.13;100.00;64657.28;5070797;28;20205;-53
2023/10/28 05:06:57;;;;;;;6.93;2.92;;;;;;;16.25;100.00;64675.00;5070565;28;20674;-52
2023/10/28 05:09:23;;;;;;;9.68;3.50;;;;;;;16.23;100.00;64670.81;5070770;28;20215;-52
2023/10/28 05:12:00;;;;;;;14.40;9.25;;;;;;;16.19;100.00;64663.88;5070618;28;20213;-52
2023/10/28 05:14:25;;;;;;;7.85;3.63;;;;;;;16.55;100.00;64706.06;5070806;28;20269;-52
2023/10/28 05:16:55;;;;;;;8.30;3.47;;;;;;;16.48;100.00;64698.31;5052583;28;20220;-53
2023/10/28 05:19:22;;;;;;;6.15;3.17;;;;;;;16.52;100.00;64700.22;5070424;28;20207;-52
2023/10/28 05:21:47;;;;;;;5.35;3.00;;;;;;;16.51;100.00;64701.66;5074610;28;20682;-55
2023/10/28 05:24:13;;;;;;;26.90;15.35;;;;;;;16.28;100.00;64678.84;5074053;28;20204;-55
2023/10/28 05:26:38;;;;;;;6.10;3.88;;;;;;;16.21;100.00;64668.06;5074171;28;20208;-54
2023/10/28 05:29:04;;;;;;;7.90;3.72;;;;;;;16.50;100.00;64703.09;5074202;28;20204;-56
2023/10/28 05:31:29;;;;;;;8.77;3.88;;;;;;;16.60;100.00;64711.03;5055927;28;20706;-54
2023/10/28 05:33:55;;;;;;;6.28;2.75;;;;;;;16.51;100.00;64699.13;5074218;28;20565;-55
2023/10/28 05:36:21;;;;;;;9.02;4.05;;;;;;;16.17;100.00;64666.75;5073908;28;20234;-52
2023/10/28 05:38:47;;;;;;;9.80;4.30;;;;;;;15.85;100.00;64629.00;5074231;28;20285;-52
2023/10/28 05:41:12;;;;;;;7.32;3.40;;;;;;;16.01;100.00;64643.50;5073915;28;20674;-53
2023/10/28 05:43:38;;;;;;;11.07;3.55;;;;;;;16.42;100.00;64696.81;5056089;28;20208;-52
2023/10/28 05:46:04;;;;;;;8.30;3.72;;;;;;;16.60;100.00;64708.47;5073878;28;20207;-51
2023/10/28 05:48:29;;;;;;;5.15;3.13;;;;;;;16.36;100.00;64687.66;5073676;28;20208;-53
2023/10/28 05:50:57;;;;;;;7.03;2.97;;;;;;;16.16;100.00;64663.09;5073904;28;20197;-53
2023/10/28 05:53:24;;;;;;;9.18;3.58;;;;;;;16.43;100.00;64692.28;5073562;28;20275;-53
2023/10/28 05:55:50;;;;;;;7.82;3.03;;;;;;;16.63;100.00;64714.88;5073541;28;20197;-53
2023/10/28 05:58:16;;;;;;;6.55;3.55;;;;;;;16.60;100.00;64709.00;5073469;28;20204;-53
2023/10/28 06:00:42;;;;;;;4.95;3.20;;;;;;;16.50;100.00;64700.56;5073535;28;20264;-55
2023/10/28 06:03:08;;;;;;;10.55;3.30;;;;;;;16.47;100.00;64696.69;5073471;28;20220;-55
2023/10/28 06:05:35;;;;;;;9.32;4.13;;;;;;;16.56;100.00;64707.16;5073708;28;20200;-56
2023/10/28 06:08:00;;;;;;;8.98;2.90;;;;;;;16.53;100.00;64703.88;5073583;28;20245;-52
2023/10/28 06:10:26;;;;;;;5.50;3.08;;;;;;;16.86;100.00;64739.66;5073491;28;20729;-53
2023/10/28 06:12:52;;;;;;;5.47;3.28;;;;;;;16.89;100.00;64742.41;5073382;28;20212;-53
2023/10/28 06:15:17;;;;;;;7.30;3.15;;;;;;;16.98;100.00;64754.88;5073268;28;20208;-53
2023/10/28 06:17:45;;;;;;;5.88;2.58;;;;;;;16.93;100.00;64746.81;5073359;28;20213;-52
2023/10/28 06:20:11;;;;;;;6.60;3.33;;;;;;;17.00;100.00;64757.06;5073165;28;20292;-54
2023/10/28 06:22:36;;;;;;;6.88;3.40;;;;;;;16.90;100.00;64740.97;5073205;28;20771;-54
2023/10/28 06:25:04;;;;;;;5.88;3.25;;;;;;;17.07;100.00;64764.78;5073117;28;20200;-55
2023/10/28 06:27:30;;;;;;;14.40;5.07;;;;;;;17.26;100.00;64786.25;5073066;28;20211;-54
2023/10/28 06:29:56;;;;;;;13.25;4.63;;;;;;;17.26;100.00;64780.63;5055133;28;20217;-54
2023/10/28 06:32:21;;;;;;;13.23;4.60;;;;;;;17.07;100.00;64759.69;5073296;28;20284;-53
2023/10/28 06:34:47;;;;;;;9.43;4.55;;;;;;;16.79;100.00;64731.94;5073537;28;20211;-55
2023/10/28 06:37:13;;;;;;;9.77;4.95;;;;;;;16.89;100.00;64739.88;5055464;28;20694;-55
2023/10/28 06:39:39;;;;;;;11.30;4.30;;;;;;;17.17;100.00;64771.25;5073207;28;20662;-54
2023/10/28 06:42:05;;;;;;;12.27;4.63;;;;;;;17.12;100.00;64770.84;5072596;28;20320;-54
2023/10/28 06:44:32;;;;;;;14.43;6.68;;;;;;;16.95;100.00;64749.03;5073024;28;20697;-55
2023/10/28 06:46:58;;;;;;;11.00;6.82;;;;;;;16.85;100.00;64735.47;5073407;28;20212;-54
2023/10/28 06:49:24;;;;;;;8.80;4.90;;;;;;;17.01;100.00;64753.09;5072825;28;20220;-54
2023/10/28 06:51:50;;;;;;;8.70;4.57;;;;;;;17.24;100.00;64784.06;5073200;28;20208;-55
2023/10/28 06:54:16;;;;;;;11.07;4.47;;;;;;;17.40;100.00;64796.03;5072675;28;20591;-53
2023/10/28 06:56:41;;;;;;;9.85;4.72;;;;;;;17.53;100.00;64812.94;5072772;28;20498;-56
2023/10/28 06:59:07;;;;;;;9.20;5.20;;;;;;;17.67;100.00;64828.38;5072659;28;20303;-54
2023/10/28 07:01:34;;;;;;;10.07;5.38;;;;;;;17.62;100.00;64822.84;5072820;28;20303;-54
2023/10/28 07:04:01;;;;;;;8.98;4.28;;;;;;;17.69;100.00;64833.13;5072833;28;20205;-54
2023/10/28 07:06:26;;;;;;;8.13;4.13;;;;;;;18.08;100.00;64873.56;5072430;28;20248;-57
2023/10/28 07:08:52;;;;;;;10.35;4.03;;;;;;;18.06;100.00;64871.34;5072720;28;20228;-54
2023/10/28 07:11:17;;;;;;;13.05;4.43;;;;;;;17.93;100.00;64857.03;5072753;28;20201;-57
2023/10/28 07:13:44;;;;;;;8.75;3.53;;;;;;;18.06;100.00;64868.81;5072204;28;20207;-54
2023/10/28 07:16:10;;;;;;;9.00;4.05;;;;;;;18.08;100.00;64871.00;5071980;28;20205;-54
2023/10/28 07:18:35;;;;;;;8.60;4.07;;;;;;;17.96;100.00;64859.78;5072322;28;20216;-53
2023/10/28 07:21:02;;;;;;;8.20;3.10;;;;;;;18.18;100.00;64884.59;5072429;28;20220;-55
2023/10/28 07:23:31;;;;;;;9.95;2.60;;;;;;;18.37;100.00;64903.00;5072272;28;20209;-54
2023/10/28 07:25:58;;;;;;;7.78;2.97;;;;;;;18.31;100.00;64898.94;5054060;28;20215;-56
2023/10/28 07:28:24;;;;;;;6.07;2.97;;;;;;;18.35;100.00;64900.78;5072253;28;20240;-55
2023/10/28 07:30:52;;;;;;;6.70;3.50;;;;;;;18.82;100.00;64957.22;5071882;28;20789;-54
2023/10/28 07:33:21;;;;;;;4.93;2.85;;;;;;;18.76;100.00;64944.94;5071979;28;20217;-56
2023/10/28 07:35:48;;;;;;;6.80;2.60;;;;;;;18.82;100.00;64954.13;5071903;28;20201;-54
2023/10/28 07:38:17;;;;;;;5.43;2.25;;;;;;;19.01;98.88;64972.50;5072075;28;20204;-54
2023/10/28 07:40:47;;;;;;;6.32;2.95;;;;;;;18.89;99.21;64959.81;5071630;28;20213;-55
2023/10/28 07:43:14;;;;;;;4.50;2.10;;;;;;;18.90;99.58;64963.50;5053061;28;20243;-54
2023/10/28 07:45:42;;;;;;;7.00;2.50;;;;;;;19.20;97.03;64996.03;5071747;28;20232;-54
2023/10/28 07:48:09;;;;;;;4.15;2.33;;;;;;;19.44;93.37;65020.00;5071756;28;20213;-53
2023/10/28 07:50:42;;;;;;;7.78;2.80;;;;;;;19.38;95.81;65015.94;5071479;28;20288;-54
2023/10/28 07:53:08;;;;;;;8.70;3.00;;;;;;;19.32;96.39;65008.72;5053545;28;20266;-54
2023/10/28 07:55:37;;;;;;;8.15;2.63;;;;;;;19.55;94.31;65031.59;5071530;28;20204;-54
2023/10/28 07:58:03;;;;;;;5.43;2.67;;;;;;;19.49;93.93;65028.09;5054230;28;20296;-55
2023/10/28 08:00:29;;;;;;;6.18;3.10;;;;;;;19.69;93.35;65047.63;5053556;28;20213;-56
2023/10/28 08:02:55;;;;;;;8.82;2.83;;;;;;;19.86;92.16;65068.94;5071348;28;20267;-54
2023/10/28 08:05:21;;;;;;;6.32;3.33;;;;;;;20.21;90.05;65106.50;5053281;28;20675;-54
2023/10/28 08:07:48;;;;;;;6.60;2.95;;;;;;;20.24;87.07;65109.84;5071349;28;20209;-54
2023/10/28 08:10:14;;;;;;;6.38;3.17;;;;;;;20.30;86.31;65114.44;5053431;28;20197;-54
2023/10/28 08:12:40;;;;;;;10.32;3.33;;;;;;;20.34;87.42;65121.44;5071332;28;20295;-55
2023/10/28 08:15:09;;;;;;;3.97;2.50;;;;;;;20.67;85.07;65154.78;5053682;28;20208;-56
2023/10/28 08:17:34;;;;;;;6.22;2.85;;;;;;;20.61;82.33;65151.28;5071545;28;20687;-54
2023/10/28 08:20:00;;;;;;;7.75;2.72;;;;;;;20.65;81.64;65155.13;5071130;28;20230;-54
2023/10/28 08:22:26;;;;;;;9.65;3.47;;;;;;;20.93;81.79;65181.53;5071757;28;20213;-54
2023/10/28 08:24:51;;;;;;;6.57;2.90;;;;;;;21.49;79.70;65245.47;5071399;28;20566;-55
2023/10/28 08:27:17;;;;;;;7.60;2.42;;;;;;;21.79;79.09;65277.56;5071241;28;20232;-54
2023/10/28 08:29:46;;;;;;;5.75;2.65;;;;;;;22.21;76.92;65324.06;5071390;28;20224;-54
2023/10/28 08:32:12;;;;;;;7.22;2.58;;;;;;;22.49;75.12;65357.63;5071136;28;20255;-54
2023/10/28 08:34:38;;;;;;;9.52;2.90;;;;;;;22.16;73.90;65315.97;5071096;28;20196;-54
2023/10/28 08:37:04;;;;;;;5.50;2.05;;;;;;;22.48;73.05;65354.50;5071181;28;20231;-54
2023/10/28 08:39:31;;;;;;;8.40;3.10;;;;;;;22.21;72.85;65321.50;5071181;28;20196;-54
2023/10/28 08:42:04;;;;;;;6.18;2.67;;;;;;;22.63;72.31;65368.00;5053232;28;20306;-56
2023/10/28 08:44:31;;;;;;;4.93;2.10;;;;;;;22.74;69.62;65382.75;5071031;28;20196;-53
2023/10/28 08:46:57;;;;;;;7.55;3.40;;;;;;;22.54;70.70;65358.03;5070850;28;20208;-53
2023/10/28 08:49:25;;;;;;;8.65;2.85;;;;;;;22.65;70.85;65370.22;5071009;28;20211;-53
2023/10/28 08:51:58;;;;;;;5.32;2.47;;;;;;;22.74;68.75;65382.75;5071070;28;20213;-54
2023/10/28 08:54:26;;;;;;;6.60;2.63;;;;;;;22.88;69.93;65397.69;5070013;28;20201;-53
2023/10/28 08:56:54;;;;;;;5.15;2.90;;;;;;;22.39;71.23;65344.53;5070815;28;20222;-53
2023/10/28 08:59:20;;;;;;;5.38;2.92;;;;;;;22.32;70.86;65336.25;5070773;28;20207;-53
2023/10/28 09:01:47;;;;;;;9.60;4.05;;;;;;;22.73;69.11;65381.63;5070649;28;20217;-54
2023/10/28 09:04:14;;;;;;;8.93;5.80;;;;;;;22.89;68.39;65401.94;5070634;28;20285;-53
2023/10/28 09:06:40;;;;;;;9.52;3.40;;;;;;;23.37;66.69;65452.00;5070889;28;20224;-53
2023/10/28 09:09:15;;;;;;;7.95;3.50;;;;;;;23.25;66.65;65439.22;5052915;28;20204;-52
2023/10/28 09:11:41;;;;;;;5.40;2.40;;;;;;;23.46;65.06;65459.41;5070849;28;20216;-53
2023/10/28 09:14:07;;;;;;;7.05;2.50;;;;;;;23.83;63.98;65503.00;5070758;28;20250;-56
2023/10/28 09:16:37;;;;;;;17.45;3.70;;;;;;;24.07;63.07;65529.63;5070610;28;20220;-53
2023/10/28 09:19:03;;;;;;;10.00;3.88;;;;;;;24.46;61.81;65569.72;5070687;28;20265;-52
2023/10/28 09:21:32;;;;;;;4.32;2.85;;;;;;;24.54;60.88;65581.19;5036027;28;20307;-53
2023/10/28 09:24:01;;;;;;;8.48;4.38;;;;;;;24.78;60.50;65607.81;5052882;28;20208;-53
2023/10/28 09:26:30;;;;;;;8.00;4.07;;;;;;;25.14;57.87;65646.66;5070679;28;20628;-56
2023/10/28 09:29:03;;;;;;;6.00;3.10;;;;;;;25.02;55.96;65628.16;5070478;28;20283;-53
2023/10/28 09:31:29;;;;;;;9.13;3.30;;;;;;;25.33;56.08;65665.16;5052643;28;20243;-52
2023/10/28 09:33:57;;;;;;;6.55;2.63;;;;;;;25.34;53.43;65666.81;5070615;28;20595;-53
2023/10/28 09:36:24;;;;;;;6.13;1.98;;;;;;;24.80;51.13;65607.47;5052248;28;20189;-54
2023/10/28 09:38:51;;;;;;;6.28;1.90;;;;;;;24.18;52.47;65539.22;5052356;28;20201;-55
2023/10/28 09:41:19;;;;;;;13.75;3.15;;;;;;;23.94;54.27;65514.59;5070606;28;20252;-56
2023/10/28 09:43:44;;;;;;;4.47;2.25;;;;;;;24.28;52.24;65552.31;5070626;28;20215;-53
2023/10/28 09:46:10;;;;;;;5.75;2.42;;;;;;;24.36;51.73;65561.19;5070358;28;20296;-53
2023/10/28 09:48:39;;;;;;;6.05;2.70;;;;;;;24.78;50.74;65604.69;5070246;28;20288;-53
2023/10/28 09:51:06;;;;;;;4.03;2.08;;;;;;;24.50;50.96;65576.75;5070122;28;20239;-53
2023/10/28 09:53:37;;;;;;;4.25;1.67;;;;;;;24.47;48.48;65573.41;5070061;28;20691;-52
2023/10/28 09:56:03;;;;;;;4.93;2.40;;;;;;;24.61;49.51;65586.34;5052772;28;20209;-55
2023/10/28 09:58:38;;;;;;;4.22;1.65;;;;;;;24.72;47.77;65598.56;5070196;28;20181;-52
2023/10/28 10:01:14;;;;;;;6.35;1.80;;;;;;;25.27;46.06;65661.63;5052081;28;20220;-54
2023/10/28 10:04:14;;;;;;;4.00;1.60;;;;;;;25.56;42.71;65691.25;5070185;28;20200;-53
2023/10/28 10:06:40;;;;;;;3.28;1.55;;;;;;;25.14;44.90;65641.47;5072113;28;20236;-54
2023/10/28 10:09:12;;;;;;;4.07;1.80;;;;;;;25.54;42.59;65691.63;5073479;28;20683;-57
2023/10/28 10:11:42;;;;;;;2.70;1.52;;;;;;;25.47;42.94;65683.84;5073546;28;20212;-52
2023/10/28 10:14:10;;;;;;;4.53;1.25;;;;;;;25.31;40.72;65662.94;5073191;28;20258;-52
2023/10/28 10:16:46;;;;;;;3.67;1.33;;;;;;;25.68;40.92;65704.59;5073214;28;20212;-53
2023/10/28 10:19:22;;;;;;;3.45;1.33;;;;;;;25.52;40.17;65686.25;5073102;28;20663;-51
2023/10/28 10:21:51;;;;;;;2.72;1.35;;;;;;;26.02;39.50;65741.78;5073268;28;20294;-51
2023/10/28 10:24:18;;;;;;;2.67;1.50;;;;;;;25.80;39.08;65717.91;5073220;28;20193;-53
2023/10/28 10:26:53;;;;;;;5.57;1.58;;;;;;;25.50;38.64;65687.19;5073119;28;20721;-58
2023/10/28 10:29:19;;;;;;;2.08;1.25;;;;;;;25.16;39.23;65648.88;5073002;28;20252;-53
2023/10/28 10:31:51;;;;;;;4.80;1.25;;;;;;;25.15;39.02;65645.19;5073117;28;20631;-53
2023/10/28 10:34:45;;;;;;;5.13;1.88;;;;;;;24.80;39.63;65606.91;5073085;28;20192;-53
2023/10/28 10:37:25;;;;;;;4.53;1.52;;;;;;;24.48;40.33;65571.94;5073104;28;20582;-53
2023/10/28 10:39:50;;;;;;;2.30;1.20;;;;;;;24.65;39.76;65590.78;5072896;28;20560;-52
2023/10/28 10:42:16;;;;;;;3.75;1.45;;;;;;;25.12;37.81;65641.84;5072689;28;20220;-53
2023/10/28 10:44:41;;;;;;;3.85;1.58;;;;;;;25.27;36.69;65659.03;5072999;28;20550;-54
2023/10/28 10:47:09;;;;;;;6.43;1.52;;;;;;;25.51;37.12;65685.69;5072848;28;20217;-56
2023/10/28 10:49:40;;;;;;;4.18;1.23;;;;;;;25.50;34.78;65686.63;5072633;28;20543;-54
2023/10/28 10:52:08;;;;;;;6.35;1.30;;;;;;;25.27;35.22;65655.91;5072699;28;20281;-53
2023/10/28 10:54:36;;;;;;;4.40;2.00;;;;;;;25.33;36.12;65668.28;5072587;28;20204;-51
2023/10/28 10:57:02;;;;;;;4.47;1.48;;;;;;;24.94;36.07;65623.00;5072959;28;20205;-59
2023/10/28 10:59:29;;;;;;;2.10;1.20;;;;;;;24.85;36.40;65615.56;5072737;28;20279;-55
2023/10/28 11:02:02;;;;;;;3.10;0.90;;;;;;;25.11;36.54;65643.31;5072704;28;20205;-52
2023/10/28 11:04:29;;;;;;;1.92;0.90;;;;;;;24.93;36.65;65621.88;5072523;28;20207;-52
2023/10/28 11:06:55;;;;;;;5.88;1.27;;;;;;;24.82;36.70;65611.69;5054632;28;20208;-53
2023/10/28 11:09:21;;;;;;;4.25;0.90;;;;;;;24.30;37.30;65551.44;5054231;28;20200;-51
2023/10/28 11:11:47;;;;;;;5.32;1.20;;;;;;;24.50;36.58;65573.59;5054628;28;20216;-52
2023/10/28 11:14:13;;;;;;;3.38;1.10;;;;;;;24.65;36.80;65590.22;5054573;28;20279;-56
2023/10/28 11:16:41;;;;;;;2.40;1.15;;;;;;;24.65;36.93;65590.78;5054840;28;20635;-54
2023/10/28 11:19:11;;;;;;;5.45;1.20;;;;;;;24.73;37.27;65599.13;5071709;28;20200;-52
2023/10/28 11:21:39;;;;;;;2.30;1.17;;;;;;;24.72;37.49;65601.16;5072250;28;20223;-54
2023/10/28 11:24:07;;;;;;;3.30;1.20;;;;;;;24.92;37.64;65620.78;5054177;28;20205;-53
2023/10/28 11:26:34;;;;;;;5.53;1.73;;;;;;;25.31;36.95;65665.53;5054242;28;20213;-51